Steelton, PA (17113)

6:26 AM EST on January 27, 2015 (GMT -0500)
Lenker Manor | Change Station
CLOSE
Current Station
Personal Weather Station
Location: Harrisburg, PA
Elevation: 435 ft
Nearby Weather Stations

Elev 435 ft 40.26 °N, 76.83 °W | Updated 1 minute ago

Light Snow
Light Snow
26.2 °F
Feels Like 21 °F
N
4.5
Wind Variable Wind from North
Gusts 6.9 mph

Today
High -- | Low -- °F
--% Chance of Precip.
Yesterday
High -- | Low -- °F
Precip. -- in
7:20 AM 5:19 PM
First Quarter, 53% visible
Pressure 29.80 in
Visibility 8.0 miles
Clouds Overcast 3600 ft
Windchill 21 °F
Dew Point 20 °F
Humidity 77%
Rainfall 0.00 in
Snow Depth Not available.
UV 0 out of 12
Pollen .10 out of 12
Air Quality Not available.
Flu Activity Not available.
METAR KCXY 271056Z AUTO 32010KT 8SM -SN OVC036 M03/M07 A2978 RMK AO2 SLP091 P0000 T10281067

More Conditions Fewer Conditions

Pressure 29.80 in
Visibility 8.0 miles
Clouds Overcast 3600 ft
Windchill 21 °F
Dew Point 20 °F
Humidity 77%
Rainfall 0.00 in
Snow Depth Not available.
UV 0 out of 12
Pollen .10 out of 12
Air Quality Not available.
Flu Activity Not available.
METAR KCXY 271056Z AUTO 32010KT 8SM -SN OVC036 M03/M07 A2978 RMK AO2 SLP091 P0000 T10281067

More Conditions Fewer Conditions

10-Day Weather Forecast

Almanac

Astronomy

Jan. 27, 2015 Rise Set
Actual Time
Civil Twilight
Nautical Twilight
Astronomical Twilight
Moon
Length of Visible Light
Length of Day
Tomorrow will be .
, % of the Moon is Illuminated

Today's Extremes

State Highs State Lows

Community

WunderPhotos

Upload Photos

1,790,564 photos uploaded!

WunderBlogs® & News

Nearby

Air Quality

  Air Quality AQ Index Pollutant
Not available.

Snow Depth

Station Depth Elevation

Earthquake Activity

City Distance Mag. Time & Date
Minimum magnitude displayed is 2.5.

Coastal Water Temperatures

Place Temperature

Nearby Weather Stations